Main page
METAR-TAF:

METAR-TAF

Airports :

Akanu Ibiam International Airport

Enugu, Nigeria

latitude: 06-28N, longitude: 007-33E, elevation: 137 m

Current weather observation

The report was made 1 hour and 3 minutes ago, at 20:00 UTC
Wind 6 kt from the West/Southwest
Temperature 26°C
Humidity 79%
Pressure 1014 hPa
Visibility 10 km or more
Scattered clouds at a height of 1000 ft

METAR: DNEN 052000Z 25006KT 9999 SCT010 26/22 Q1014 TEMPO TS

Time: 22:03 (21:03 UTC)


TAF: missing

Weather observations and forecasts of more than 4000 airports (METAR and TAF reports).

The available stations are represented by yellow and red dots on the map.

Hover mouse over dot to see the name of the station.

Then click to see weather observations and forecasts.

To change the map : click on the green buttons with a black cross to zoom in, on the green button with a dash to zoom out, or on the green arrows for adjacent maps.


METAR-TAF: